sensor_id;sensor_type;location;lat;lon;timestamp;P1;durP1;ratioP1;P2;durP2;ratioP2
11735;SDS011;5924;51.398;7.088;2023-06-22T00:03:26;2.70;;;2.60;;
11735;SDS011;5924;51.398;7.088;2023-06-22T00:06:19;2.47;;;2.37;;
11735;SDS011;5924;51.398;7.088;2023-06-22T00:09:29;2.60;;;2.60;;
11735;SDS011;5924;51.398;7.088;2023-06-22T00:12:28;2.53;;;2.50;;
11735;SDS011;5924;51.398;7.088;2023-06-22T00:15:31;3.33;;;3.23;;
11735;SDS011;5924;51.398;7.088;2023-06-22T00:18:25;2.67;;;2.57;;
11735;SDS011;5924;51.398;7.088;2023-06-22T00:21:33;2.80;;;2.70;;
11735;SDS011;5924;51.398;7.088;2023-06-22T00:27:29;2.80;;;2.70;;
11735;SDS011;5924;51.398;7.088;2023-06-22T00:30:48;3.57;;;3.47;;
11735;SDS011;5924;51.398;7.088;2023-06-22T00:33:17;4.63;;;2.93;;
11735;SDS011;5924;51.398;7.088;2023-06-22T00:35:59;3.33;;;3.23;;
11735;SDS011;5924;51.398;7.088;2023-06-22T00:38:49;3.60;;;3.50;;
11735;SDS011;5924;51.398;7.088;2023-06-22T00:41:29;3.27;;;3.10;;
11735;SDS011;5924;51.398;7.088;2023-06-22T00:43:57;4.00;;;3.80;;
11735;SDS011;5924;51.398;7.088;2023-06-22T00:46:54;3.80;;;3.60;;
11735;SDS011;5924;51.398;7.088;2023-06-22T00:49:40;3.73;;;3.43;;
11735;SDS011;5924;51.398;7.088;2023-06-22T00:52:29;3.97;;;3.67;;
11735;SDS011;5924;51.398;7.088;2023-06-22T00:55:01;3.40;;;3.30;;
11735;SDS011;5924;51.398;7.088;2023-06-22T00:57:57;3.43;;;3.27;;
11735;SDS011;5924;51.398;7.088;2023-06-22T01:03:54;6.60;;;3.80;;
11735;SDS011;5924;51.398;7.088;2023-06-22T01:06:29;3.57;;;3.47;;
11735;SDS011;5924;51.398;7.088;2023-06-22T01:09:18;3.40;;;3.30;;
11735;SDS011;5924;51.398;7.088;2023-06-22T01:12:11;2.60;;;2.60;;
11735;SDS011;5924;51.398;7.088;2023-06-22T01:14:44;3.30;;;3.20;;
11735;SDS011;5924;51.398;7.088;2023-06-22T01:17:55;4.47;;;4.30;;
11735;SDS011;5924;51.398;7.088;2023-06-22T01:20:38;5.00;;;4.70;;
11735;SDS011;5924;51.398;7.088;2023-06-22T01:23:51;3.20;;;3.10;;
11735;SDS011;5924;51.398;7.088;2023-06-22T01:29:55;4.30;;;4.00;;
11735;SDS011;5924;51.398;7.088;2023-06-22T01:32:38;4.23;;;3.77;;
11735;SDS011;5924;51.398;7.088;2023-06-22T01:35:26;3.43;;;3.33;;
11735;SDS011;5924;51.398;7.088;2023-06-22T01:41:10;3.77;;;3.60;;
11735;SDS011;5924;51.398;7.088;2023-06-22T01:44:08;3.50;;;3.40;;
11735;SDS011;5924;51.398;7.088;2023-06-22T01:49:29;4.27;;;4.17;;
11735;SDS011;5924;51.398;7.088;2023-06-22T01:52:36;5.93;;;4.30;;
11735;SDS011;5924;51.398;7.088;2023-06-22T01:55:27;3.53;;;3.43;;
11735;SDS011;5924;51.398;7.088;2023-06-22T01:58:07;3.20;;;3.10;;
11735;SDS011;5924;51.398;7.088;2023-06-22T02:00:37;3.83;;;3.73;;
11735;SDS011;5924;51.398;7.088;2023-06-22T02:03:53;3.53;;;3.43;;
11735;SDS011;5924;51.398;7.088;2023-06-22T02:06:37;3.93;;;3.73;;
11735;SDS011;5924;51.398;7.088;2023-06-22T02:12:21;4.50;;;4.30;;
11735;SDS011;5924;51.398;7.088;2023-06-22T02:15:12;4.30;;;4.20;;
11735;SDS011;5924;51.398;7.088;2023-06-22T02:18:07;4.10;;;4.00;;
11735;SDS011;5924;51.398;7.088;2023-06-22T02:20:57;4.03;;;3.83;;
11735;SDS011;5924;51.398;7.088;2023-06-22T02:23:34;3.80;;;3.70;;
11735;SDS011;5924;51.398;7.088;2023-06-22T02:26:46;3.87;;;3.77;;
11735;SDS011;5924;51.398;7.088;2023-06-22T02:29:32;5.30;;;4.80;;
11735;SDS011;5924;51.398;7.088;2023-06-22T02:32:10;4.73;;;4.43;;
11735;SDS011;5924;51.398;7.088;2023-06-22T02:34:49;4.53;;;4.23;;
11735;SDS011;5924;51.398;7.088;2023-06-22T02:37:20;4.80;;;4.60;;
11735;SDS011;5924;51.398;7.088;2023-06-22T02:43:36;4.43;;;4.23;;
11735;SDS011;5924;51.398;7.088;2023-06-22T02:46:18;4.30;;;4.07;;
11735;SDS011;5924;51.398;7.088;2023-06-22T02:49:32;10.60;;;5.73;;
11735;SDS011;5924;51.398;7.088;2023-06-22T02:52:10;4.40;;;4.27;;
11735;SDS011;5924;51.398;7.088;2023-06-22T02:54:41;4.93;;;4.53;;
11735;SDS011;5924;51.398;7.088;2023-06-22T02:57:12;4.53;;;4.33;;
11735;SDS011;5924;51.398;7.088;2023-06-22T03:00:12;4.60;;;4.50;;
11735;SDS011;5924;51.398;7.088;2023-06-22T03:02:48;3.73;;;3.63;;
11735;SDS011;5924;51.398;7.088;2023-06-22T03:05:37;5.83;;;5.43;;
11735;SDS011;5924;51.398;7.088;2023-06-22T03:08:11;5.87;;;5.47;;
11735;SDS011;5924;51.398;7.088;2023-06-22T03:10:57;4.70;;;4.50;;
11735;SDS011;5924;51.398;7.088;2023-06-22T03:16:52;4.20;;;4.00;;
11735;SDS011;5924;51.398;7.088;2023-06-22T03:19:17;4.50;;;4.30;;
11735;SDS011;5924;51.398;7.088;2023-06-22T03:21:49;4.10;;;4.00;;
11735;SDS011;5924;51.398;7.088;2023-06-22T03:24:43;4.30;;;4.20;;
11735;SDS011;5924;51.398;7.088;2023-06-22T03:30:42;5.20;;;4.90;;
11735;SDS011;5924;51.398;7.088;2023-06-22T03:33:10;4.70;;;4.50;;
11735;SDS011;5924;51.398;7.088;2023-06-22T03:36:26;4.50;;;4.30;;
11735;SDS011;5924;51.398;7.088;2023-06-22T03:39:35;4.73;;;4.53;;
11735;SDS011;5924;51.398;7.088;2023-06-22T03:42:30;6.40;;;5.90;;
11735;SDS011;5924;51.398;7.088;2023-06-22T03:48:41;8.17;;;7.47;;
11735;SDS011;5924;51.398;7.088;2023-06-22T03:51:36;4.87;;;4.67;;
11735;SDS011;5924;51.398;7.088;2023-06-22T03:54:23;5.83;;;5.50;;
11735;SDS011;5924;51.398;7.088;2023-06-22T03:56:52;7.67;;;7.17;;
11735;SDS011;5924;51.398;7.088;2023-06-22T03:59:24;6.13;;;5.83;;
11735;SDS011;5924;51.398;7.088;2023-06-22T04:02:13;8.73;;;8.13;;
11735;SDS011;5924;51.398;7.088;2023-06-22T04:04:47;7.37;;;6.77;;
11735;SDS011;5924;51.398;7.088;2023-06-22T04:07:30;5.77;;;5.43;;
11735;SDS011;5924;51.398;7.088;2023-06-22T04:09:58;6.63;;;6.13;;
11735;SDS011;5924;51.398;7.088;2023-06-22T04:12:30;9.53;;;8.73;;
11735;SDS011;5924;51.398;7.088;2023-06-22T04:15:12;7.53;;;6.87;;
11735;SDS011;5924;51.398;7.088;2023-06-22T04:17:49;5.47;;;5.17;;
11735;SDS011;5924;51.398;7.088;2023-06-22T04:20:18;8.67;;;7.90;;
11735;SDS011;5924;51.398;7.088;2023-06-22T04:22:59;8.90;;;8.00;;
11735;SDS011;5924;51.398;7.088;2023-06-22T04:25:29;8.40;;;7.70;;
11735;SDS011;5924;51.398;7.088;2023-06-22T04:28:25;6.40;;;5.80;;
11735;SDS011;5924;51.398;7.088;2023-06-22T04:30:54;12.90;;;11.60;;
11735;SDS011;5924;51.398;7.088;2023-06-22T04:33:33;8.10;;;7.30;;
11735;SDS011;5924;51.398;7.088;2023-06-22T04:36:13;6.60;;;6.20;;
11735;SDS011;5924;51.398;7.088;2023-06-22T04:39:02;14.80;;;11.30;;
11735;SDS011;5924;51.398;7.088;2023-06-22T04:41:37;9.27;;;8.07;;
11735;SDS011;5924;51.398;7.088;2023-06-22T04:44:24;10.23;;;9.30;;
11735;SDS011;5924;51.398;7.088;2023-06-22T04:46:54;6.63;;;6.23;;
11735;SDS011;5924;51.398;7.088;2023-06-22T04:49:52;7.83;;;7.20;;
11735;SDS011;5924;51.398;7.088;2023-06-22T04:52:43;9.47;;;8.60;;
11735;SDS011;5924;51.398;7.088;2023-06-22T04:55:14;8.47;;;7.87;;
11735;SDS011;5924;51.398;7.088;2023-06-22T04:58:03;6.70;;;6.30;;
11735;SDS011;5924;51.398;7.088;2023-06-22T05:00:40;9.37;;;8.17;;
11735;SDS011;5924;51.398;7.088;2023-06-22T05:03:12;7.97;;;7.27;;
11735;SDS011;5924;51.398;7.088;2023-06-22T05:06:04;9.40;;;8.43;;
11735;SDS011;5924;51.398;7.088;2023-06-22T05:08:50;10.87;;;9.87;;
11735;SDS011;5924;51.398;7.088;2023-06-22T05:11:41;15.97;;;11.23;;
11735;SDS011;5924;51.398;7.088;2023-06-22T05:14:14;17.00;;;12.20;;
11735;SDS011;5924;51.398;7.088;2023-06-22T05:16:51;12.40;;;10.70;;
11735;SDS011;5924;51.398;7.088;2023-06-22T05:22:24;10.53;;;9.63;;
11735;SDS011;5924;51.398;7.088;2023-06-22T05:24:58;13.60;;;9.93;;
11735;SDS011;5924;51.398;7.088;2023-06-22T05:27:50;8.53;;;7.57;;
11735;SDS011;5924;51.398;7.088;2023-06-22T05:30:21;8.57;;;7.87;;
11735;SDS011;5924;51.398;7.088;2023-06-22T05:33:18;15.10;;;13.57;;
11735;SDS011;5924;51.398;7.088;2023-06-22T05:36:02;12.17;;;10.10;;
11735;SDS011;5924;51.398;7.088;2023-06-22T05:39:10;14.27;;;12.87;;
11735;SDS011;5924;51.398;7.088;2023-06-22T05:41:39;10.57;;;9.67;;
11735;SDS011;5924;51.398;7.088;2023-06-22T05:47:18;13.17;;;11.77;;
11735;SDS011;5924;51.398;7.088;2023-06-22T05:49:44;15.70;;;14.13;;
11735;SDS011;5924;51.398;7.088;2023-06-22T05:52:10;15.10;;;12.50;;
11735;SDS011;5924;51.398;7.088;2023-06-22T05:54:36;17.07;;;13.87;;
11735;SDS011;5924;51.398;7.088;2023-06-22T05:57:06;14.87;;;13.03;;
11735;SDS011;5924;51.398;7.088;2023-06-22T05:59:35;12.83;;;11.53;;
11735;SDS011;5924;51.398;7.088;2023-06-22T06:02:04;12.87;;;11.57;;
11735;SDS011;5924;51.398;7.088;2023-06-22T06:04:37;10.80;;;9.70;;
11735;SDS011;5924;51.398;7.088;2023-06-22T06:07:03;19.10;;;16.33;;
11735;SDS011;5924;51.398;7.088;2023-06-22T06:09:29;11.87;;;10.67;;
11735;SDS011;5924;51.398;7.088;2023-06-22T06:11:54;23.10;;;15.93;;
11735;SDS011;5924;51.398;7.088;2023-06-22T06:14:21;19.10;;;16.80;;
11735;SDS011;5924;51.398;7.088;2023-06-22T06:16:47;18.33;;;16.10;;
11735;SDS011;5924;51.398;7.088;2023-06-22T06:19:13;17.47;;;14.37;;
11735;SDS011;5924;51.398;7.088;2023-06-22T06:21:39;16.13;;;14.37;;
11735;SDS011;5924;51.398;7.088;2023-06-22T06:24:16;15.10;;;13.60;;
11735;SDS011;5924;51.398;7.088;2023-06-22T06:26:42;11.43;;;10.20;;
11735;SDS011;5924;51.398;7.088;2023-06-22T06:29:34;19.13;;;12.90;;
11735;SDS011;5924;51.398;7.088;2023-06-22T06:32:05;14.43;;;11.83;;
11735;SDS011;5924;51.398;7.088;2023-06-22T06:34:31;12.13;;;11.00;;
11735;SDS011;5924;51.398;7.088;2023-06-22T06:37:03;19.63;;;17.57;;
11735;SDS011;5924;51.398;7.088;2023-06-22T06:39:28;19.70;;;13.57;;
11735;SDS011;5924;51.398;7.088;2023-06-22T06:41:54;18.10;;;15.47;;
11735;SDS011;5924;51.398;7.088;2023-06-22T06:44:20;15.93;;;14.43;;
11735;SDS011;5924;51.398;7.088;2023-06-22T06:46:51;20.93;;;14.50;;
11735;SDS011;5924;51.398;7.088;2023-06-22T06:49:30;17.30;;;15.50;;
11735;SDS011;5924;51.398;7.088;2023-06-22T06:52:07;17.40;;;14.80;;
11735;SDS011;5924;51.398;7.088;2023-06-22T06:54:44;17.03;;;14.60;;
11735;SDS011;5924;51.398;7.088;2023-06-22T06:57:12;16.73;;;14.87;;
11735;SDS011;5924;51.398;7.088;2023-06-22T06:59:41;18.10;;;15.27;;
11735;SDS011;5924;51.398;7.088;2023-06-22T07:02:13;13.67;;;12.33;;
11735;SDS011;5924;51.398;7.088;2023-06-22T07:04:44;16.67;;;13.67;;
11735;SDS011;5924;51.398;7.088;2023-06-22T07:07:36;19.03;;;16.40;;
11735;SDS011;5924;51.398;7.088;2023-06-22T07:10:06;14.97;;;12.90;;
11735;SDS011;5924;51.398;7.088;2023-06-22T07:12:35;16.83;;;15.17;;
11735;SDS011;5924;51.398;7.088;2023-06-22T07:15:16;13.03;;;11.57;;
11735;SDS011;5924;51.398;7.088;2023-06-22T07:17:54;18.97;;;12.90;;
11735;SDS011;5924;51.398;7.088;2023-06-22T07:20:25;19.03;;;13.60;;
11735;SDS011;5924;51.398;7.088;2023-06-22T07:22:59;16.43;;;14.70;;
11735;SDS011;5924;51.398;7.088;2023-06-22T07:25:30;15.30;;;11.70;;
11735;SDS011;5924;51.398;7.088;2023-06-22T07:28:05;11.20;;;10.00;;
11735;SDS011;5924;51.398;7.088;2023-06-22T07:30:34;20.17;;;15.47;;
11735;SDS011;5924;51.398;7.088;2023-06-22T07:32:59;20.80;;;18.60;;
11735;SDS011;5924;51.398;7.088;2023-06-22T07:35:32;14.60;;;13.00;;
11735;SDS011;5924;51.398;7.088;2023-06-22T07:38:00;13.33;;;11.97;;
11735;SDS011;5924;51.398;7.088;2023-06-22T07:40:28;13.50;;;12.20;;
11735;SDS011;5924;51.398;7.088;2023-06-22T07:42:54;16.70;;;14.83;;
11735;SDS011;5924;51.398;7.088;2023-06-22T07:45:19;15.43;;;13.77;;
11735;SDS011;5924;51.398;7.088;2023-06-22T07:47:45;14.87;;;13.23;;
11735;SDS011;5924;51.398;7.088;2023-06-22T07:50:13;12.37;;;11.17;;
11735;SDS011;5924;51.398;7.088;2023-06-22T07:52:48;16.37;;;14.37;;
11735;SDS011;5924;51.398;7.088;2023-06-22T07:55:20;13.43;;;11.90;;
11735;SDS011;5924;51.398;7.088;2023-06-22T07:57:56;23.70;;;19.80;;
11735;SDS011;5924;51.398;7.088;2023-06-22T08:00:23;27.77;;;19.13;;
11735;SDS011;5924;51.398;7.088;2023-06-22T08:03:00;13.30;;;12.00;;
11735;SDS011;5924;51.398;7.088;2023-06-22T08:05:35;16.77;;;13.87;;
11735;SDS011;5924;51.398;7.088;2023-06-22T08:08:14;19.20;;;16.90;;
11735;SDS011;5924;51.398;7.088;2023-06-22T08:10:55;15.50;;;13.90;;
11735;SDS011;5924;51.398;7.088;2023-06-22T08:13:23;15.20;;;13.60;;
11735;SDS011;5924;51.398;7.088;2023-06-22T08:16:05;21.10;;;17.13;;
11735;SDS011;5924;51.398;7.088;2023-06-22T08:18:35;24.93;;;19.43;;
11735;SDS011;5924;51.398;7.088;2023-06-22T08:24:01;29.37;;;19.40;;
11735;SDS011;5924;51.398;7.088;2023-06-22T08:26:27;25.37;;;19.70;;
11735;SDS011;5924;51.398;7.088;2023-06-22T08:29:05;21.27;;;16.83;;
11735;SDS011;5924;51.398;7.088;2023-06-22T08:31:37;23.67;;;19.87;;
11735;SDS011;5924;51.398;7.088;2023-06-22T08:34:02;22.47;;;18.57;;
11735;SDS011;5924;51.398;7.088;2023-06-22T08:36:31;21.20;;;18.93;;
11735;SDS011;5924;51.398;7.088;2023-06-22T08:38:58;22.70;;;19.60;;
11735;SDS011;5924;51.398;7.088;2023-06-22T08:41:37;15.03;;;13.43;;
11735;SDS011;5924;51.398;7.088;2023-06-22T08:44:08;19.83;;;15.10;;
11735;SDS011;5924;51.398;7.088;2023-06-22T08:46:36;25.43;;;18.43;;
11735;SDS011;5924;51.398;7.088;2023-06-22T08:49:14;24.23;;;19.30;;
11735;SDS011;5924;51.398;7.088;2023-06-22T08:51:42;16.87;;;15.20;;
11735;SDS011;5924;51.398;7.088;2023-06-22T08:54:14;16.07;;;14.37;;
11735;SDS011;5924;51.398;7.088;2023-06-22T08:56:48;22.17;;;19.60;;
11735;SDS011;5924;51.398;7.088;2023-06-22T08:59:22;22.77;;;18.77;;
11735;SDS011;5924;51.398;7.088;2023-06-22T09:04:51;21.90;;;17.80;;
11735;SDS011;5924;51.398;7.088;2023-06-22T09:07:28;19.53;;;17.43;;
11735;SDS011;5924;51.398;7.088;2023-06-22T09:10:05;20.23;;;16.93;;
11735;SDS011;5924;51.398;7.088;2023-06-22T09:12:43;24.30;;;19.00;;
11735;SDS011;5924;51.398;7.088;2023-06-22T09:15:14;22.10;;;19.47;;
11735;SDS011;5924;51.398;7.088;2023-06-22T09:17:53;22.33;;;18.77;;
11735;SDS011;5924;51.398;7.088;2023-06-22T09:20:25;21.70;;;16.77;;
11735;SDS011;5924;51.398;7.088;2023-06-22T09:22:56;25.23;;;18.30;;
11735;SDS011;5924;51.398;7.088;2023-06-22T09:25:39;20.10;;;16.27;;
11735;SDS011;5924;51.398;7.088;2023-06-22T09:28:06;21.90;;;17.10;;
11735;SDS011;5924;51.398;7.088;2023-06-22T09:30:31;19.13;;;17.13;;
11735;SDS011;5924;51.398;7.088;2023-06-22T09:32:57;21.33;;;16.83;;
11735;SDS011;5924;51.398;7.088;2023-06-22T09:35:23;19.83;;;17.57;;
11735;SDS011;5924;51.398;7.088;2023-06-22T09:37:48;16.80;;;15.10;;
11735;SDS011;5924;51.398;7.088;2023-06-22T09:40:17;16.90;;;13.97;;
11735;SDS011;5924;51.398;7.088;2023-06-22T09:42:48;15.90;;;13.90;;
11735;SDS011;5924;51.398;7.088;2023-06-22T09:45:19;17.47;;;15.73;;
11735;SDS011;5924;51.398;7.088;2023-06-22T09:47:45;15.17;;;13.60;;
11735;SDS011;5924;51.398;7.088;2023-06-22T09:50:10;17.30;;;13.77;;
11735;SDS011;5924;51.398;7.088;2023-06-22T09:52:36;20.10;;;16.17;;
11735;SDS011;5924;51.398;7.088;2023-06-22T09:55:02;16.03;;;14.30;;
11735;SDS011;5924;51.398;7.088;2023-06-22T09:57:28;17.00;;;15.20;;
11735;SDS011;5924;51.398;7.088;2023-06-22T09:59:58;20.70;;;13.63;;
11735;SDS011;5924;51.398;7.088;2023-06-22T10:02:38;18.60;;;15.17;;
11735;SDS011;5924;51.398;7.088;2023-06-22T10:05:04;16.47;;;13.90;;
11735;SDS011;5924;51.398;7.088;2023-06-22T10:07:29;16.57;;;14.70;;
11735;SDS011;5924;51.398;7.088;2023-06-22T10:09:58;18.43;;;15.93;;
11735;SDS011;5924;51.398;7.088;2023-06-22T10:12:23;17.20;;;15.10;;
11735;SDS011;5924;51.398;7.088;2023-06-22T10:15:00;16.83;;;13.63;;
11735;SDS011;5924;51.398;7.088;2023-06-22T10:17:28;16.40;;;13.93;;
11735;SDS011;5924;51.398;7.088;2023-06-22T10:19:54;19.87;;;14.67;;
11735;SDS011;5924;51.398;7.088;2023-06-22T10:22:19;13.97;;;12.60;;
11735;SDS011;5924;51.398;7.088;2023-06-22T10:24:48;15.13;;;13.73;;
11735;SDS011;5924;51.398;7.088;2023-06-22T10:27:25;19.23;;;14.50;;
11735;SDS011;5924;51.398;7.088;2023-06-22T10:30:00;15.40;;;13.80;;
11735;SDS011;5924;51.398;7.088;2023-06-22T10:32:31;15.53;;;13.73;;
11735;SDS011;5924;51.398;7.088;2023-06-22T10:35:00;14.73;;;13.33;;
11735;SDS011;5924;51.398;7.088;2023-06-22T10:37:25;13.83;;;12.43;;
11735;SDS011;5924;51.398;7.088;2023-06-22T10:39:51;12.97;;;11.87;;
11735;SDS011;5924;51.398;7.088;2023-06-22T10:42:19;12.60;;;11.40;;
11735;SDS011;5924;51.398;7.088;2023-06-22T10:44:48;11.53;;;10.53;;
11735;SDS011;5924;51.398;7.088;2023-06-22T10:47:14;11.73;;;10.57;;
11735;SDS011;5924;51.398;7.088;2023-06-22T10:49:45;11.70;;;10.70;;
11735;SDS011;5924;51.398;7.088;2023-06-22T10:52:10;12.33;;;11.10;;
11735;SDS011;5924;51.398;7.088;2023-06-22T10:54:41;12.87;;;11.20;;
11735;SDS011;5924;51.398;7.088;2023-06-22T10:57:06;13.53;;;11.40;;
11735;SDS011;5924;51.398;7.088;2023-06-22T10:59:32;9.00;;;8.37;;
11735;SDS011;5924;51.398;7.088;2023-06-22T11:01:58;9.90;;;9.07;;
11735;SDS011;5924;51.398;7.088;2023-06-22T11:04:28;10.30;;;9.40;;
11735;SDS011;5924;51.398;7.088;2023-06-22T11:06:54;8.67;;;8.07;;
11735;SDS011;5924;51.398;7.088;2023-06-22T11:09:22;9.80;;;8.93;;
11735;SDS011;5924;51.398;7.088;2023-06-22T11:11:51;9.57;;;8.77;;
11735;SDS011;5924;51.398;7.088;2023-06-22T11:14:20;9.00;;;8.20;;
11735;SDS011;5924;51.398;7.088;2023-06-22T11:16:48;11.67;;;10.77;;
11735;SDS011;5924;51.398;7.088;2023-06-22T11:19:25;12.03;;;11.00;;
11735;SDS011;5924;51.398;7.088;2023-06-22T11:21:51;9.70;;;8.90;;
11735;SDS011;5924;51.398;7.088;2023-06-22T11:24:17;9.93;;;9.13;;
11735;SDS011;5924;51.398;7.088;2023-06-22T11:26:43;9.60;;;8.77;;
11735;SDS011;5924;51.398;7.088;2023-06-22T11:29:09;10.60;;;9.70;;
11735;SDS011;5924;51.398;7.088;2023-06-22T11:31:34;10.00;;;9.20;;
11735;SDS011;5924;51.398;7.088;2023-06-22T11:34:10;10.90;;;10.00;;
11735;SDS011;5924;51.398;7.088;2023-06-22T11:36:41;10.90;;;9.90;;
11735;SDS011;5924;51.398;7.088;2023-06-22T11:39:08;15.53;;;12.67;;
11735;SDS011;5924;51.398;7.088;2023-06-22T11:41:39;14.33;;;12.83;;
11735;SDS011;5924;51.398;7.088;2023-06-22T11:44:04;11.87;;;10.90;;
11735;SDS011;5924;51.398;7.088;2023-06-22T11:46:30;12.50;;;11.27;;
11735;SDS011;5924;51.398;7.088;2023-06-22T11:48:57;14.17;;;11.03;;
11735;SDS011;5924;51.398;7.088;2023-06-22T11:51:25;11.10;;;10.20;;
11735;SDS011;5924;51.398;7.088;2023-06-22T11:53:56;10.93;;;10.03;;
11735;SDS011;5924;51.398;7.088;2023-06-22T11:56:22;15.67;;;13.37;;
11735;SDS011;5924;51.398;7.088;2023-06-22T11:58:53;12.97;;;11.67;;
11735;SDS011;5924;51.398;7.088;2023-06-22T12:01:21;19.50;;;15.10;;
11735;SDS011;5924;51.398;7.088;2023-06-22T12:03:46;16.20;;;13.80;;
11735;SDS011;5924;51.398;7.088;2023-06-22T12:06:13;18.80;;;15.37;;
11735;SDS011;5924;51.398;7.088;2023-06-22T12:08:39;24.73;;;16.47;;
11735;SDS011;5924;51.398;7.088;2023-06-22T12:11:04;17.47;;;15.50;;
11735;SDS011;5924;51.398;7.088;2023-06-22T12:13:30;17.50;;;15.70;;
11735;SDS011;5924;51.398;7.088;2023-06-22T12:15:55;19.00;;;17.00;;
11735;SDS011;5924;51.398;7.088;2023-06-22T12:18:21;26.53;;;18.27;;
11735;SDS011;5924;51.398;7.088;2023-06-22T12:20:47;20.90;;;17.30;;
11735;SDS011;5924;51.398;7.088;2023-06-22T12:23:14;19.67;;;16.47;;
11735;SDS011;5924;51.398;7.088;2023-06-22T12:25:39;18.37;;;16.23;;
11735;SDS011;5924;51.398;7.088;2023-06-22T12:28:05;21.53;;;18.73;;
11735;SDS011;5924;51.398;7.088;2023-06-22T12:30:32;22.13;;;18.13;;
11735;SDS011;5924;51.398;7.088;2023-06-22T12:32:58;34.60;;;22.70;;
11735;SDS011;5924;51.398;7.088;2023-06-22T12:35:24;33.23;;;21.77;;
11735;SDS011;5924;51.398;7.088;2023-06-22T12:37:49;27.30;;;22.83;;
11735;SDS011;5924;51.398;7.088;2023-06-22T12:40:15;30.80;;;24.10;;
11735;SDS011;5924;51.398;7.088;2023-06-22T12:42:41;33.97;;;26.70;;
11735;SDS011;5924;51.398;7.088;2023-06-22T12:45:07;33.27;;;26.30;;
11735;SDS011;5924;51.398;7.088;2023-06-22T12:47:34;27.27;;;22.47;;
11735;SDS011;5924;51.398;7.088;2023-06-22T12:49:59;30.73;;;23.90;;
11735;SDS011;5924;51.398;7.088;2023-06-22T12:52:25;44.60;;;30.57;;
11735;SDS011;5924;51.398;7.088;2023-06-22T12:54:51;42.83;;;30.27;;
11735;SDS011;5924;51.398;7.088;2023-06-22T12:57:17;34.07;;;27.47;;
11735;SDS011;5924;51.398;7.088;2023-06-22T12:59:44;47.77;;;33.07;;
11735;SDS011;5924;51.398;7.088;2023-06-22T13:02:10;38.60;;;28.77;;
11735;SDS011;5924;51.398;7.088;2023-06-22T13:04:36;39.03;;;29.60;;
11735;SDS011;5924;51.398;7.088;2023-06-22T13:07:01;39.90;;;30.00;;
11735;SDS011;5924;51.398;7.088;2023-06-22T13:09:27;39.70;;;29.67;;
11735;SDS011;5924;51.398;7.088;2023-06-22T13:11:53;39.13;;;27.70;;
11735;SDS011;5924;51.398;7.088;2023-06-22T13:14:18;35.60;;;23.73;;
11735;SDS011;5924;51.398;7.088;2023-06-22T13:16:47;28.60;;;22.80;;
11735;SDS011;5924;51.398;7.088;2023-06-22T13:19:12;25.80;;;20.57;;
11735;SDS011;5924;51.398;7.088;2023-06-22T13:21:38;23.50;;;20.57;;
11735;SDS011;5924;51.398;7.088;2023-06-22T13:24:04;25.00;;;20.43;;
11735;SDS011;5924;51.398;7.088;2023-06-22T13:26:31;21.40;;;18.70;;
11735;SDS011;5924;51.398;7.088;2023-06-22T13:28:56;22.73;;;19.77;;
11735;SDS011;5924;51.398;7.088;2023-06-22T13:31:22;20.97;;;16.90;;
11735;SDS011;5924;51.398;7.088;2023-06-22T13:33:48;19.17;;;17.07;;
11735;SDS011;5924;51.398;7.088;2023-06-22T13:36:14;19.73;;;15.83;;
11735;SDS011;5924;51.398;7.088;2023-06-22T13:38:40;18.43;;;16.07;;
11735;SDS011;5924;51.398;7.088;2023-06-22T13:41:06;20.30;;;18.20;;
11735;SDS011;5924;51.398;7.088;2023-06-22T13:43:31;23.43;;;19.00;;
11735;SDS011;5924;51.398;7.088;2023-06-22T13:45:57;18.63;;;16.67;;
11735;SDS011;5924;51.398;7.088;2023-06-22T13:48:23;19.87;;;17.20;;
11735;SDS011;5924;51.398;7.088;2023-06-22T13:50:50;16.03;;;14.40;;
11735;SDS011;5924;51.398;7.088;2023-06-22T13:53:16;15.63;;;12.93;;
11735;SDS011;5924;51.398;7.088;2023-06-22T13:55:42;13.20;;;11.90;;
11735;SDS011;5924;51.398;7.088;2023-06-22T13:58:08;13.97;;;12.57;;
11735;SDS011;5924;51.398;7.088;2023-06-22T14:00:35;18.23;;;12.50;;
11735;SDS011;5924;51.398;7.088;2023-06-22T14:03:00;14.83;;;13.30;;
11735;SDS011;5924;51.398;7.088;2023-06-22T14:05:26;14.83;;;13.13;;
11735;SDS011;5924;51.398;7.088;2023-06-22T14:07:52;15.00;;;13.60;;
11735;SDS011;5924;51.398;7.088;2023-06-22T14:10:17;15.17;;;13.67;;
11735;SDS011;5924;51.398;7.088;2023-06-22T14:12:43;13.93;;;12.57;;
11735;SDS011;5924;51.398;7.088;2023-06-22T14:15:09;14.60;;;13.10;;
11735;SDS011;5924;51.398;7.088;2023-06-22T14:17:35;14.97;;;13.47;;
11735;SDS011;5924;51.398;7.088;2023-06-22T14:20:01;17.80;;;14.20;;
11735;SDS011;5924;51.398;7.088;2023-06-22T14:22:27;15.30;;;13.73;;
11735;SDS011;5924;51.398;7.088;2023-06-22T14:24:54;17.50;;;15.57;;
11735;SDS011;5924;51.398;7.088;2023-06-22T14:27:22;20.87;;;14.47;;
11735;SDS011;5924;51.398;7.088;2023-06-22T14:29:48;17.23;;;15.40;;
11735;SDS011;5924;51.398;7.088;2023-06-22T14:32:14;17.33;;;15.27;;
11735;SDS011;5924;51.398;7.088;2023-06-22T14:34:39;16.87;;;15.17;;
11735;SDS011;5924;51.398;7.088;2023-06-22T14:37:08;16.97;;;14.97;;
11735;SDS011;5924;51.398;7.088;2023-06-22T14:39:35;19.03;;;15.00;;
11735;SDS011;5924;51.398;7.088;2023-06-22T14:42:01;15.87;;;14.00;;
11735;SDS011;5924;51.398;7.088;2023-06-22T14:44:28;16.53;;;14.83;;
11735;SDS011;5924;51.398;7.088;2023-06-22T14:46:54;16.80;;;14.33;;
11735;SDS011;5924;51.398;7.088;2023-06-22T14:49:21;16.47;;;14.77;;
11735;SDS011;5924;51.398;7.088;2023-06-22T14:51:46;18.63;;;13.93;;
11735;SDS011;5924;51.398;7.088;2023-06-22T14:54:12;19.00;;;14.73;;
11735;SDS011;5924;51.398;7.088;2023-06-22T14:56:38;19.47;;;16.23;;
11735;SDS011;5924;51.398;7.088;2023-06-22T14:59:04;18.77;;;14.30;;
11735;SDS011;5924;51.398;7.088;2023-06-22T15:01:29;16.53;;;13.90;;
11735;SDS011;5924;51.398;7.088;2023-06-22T15:03:55;15.90;;;14.33;;
11735;SDS011;5924;51.398;7.088;2023-06-22T15:06:21;13.83;;;12.43;;
11735;SDS011;5924;51.398;7.088;2023-06-22T15:08:47;15.63;;;13.97;;
11735;SDS011;5924;51.398;7.088;2023-06-22T15:11:13;15.80;;;14.10;;
11735;SDS011;5924;51.398;7.088;2023-06-22T15:13:39;18.03;;;14.73;;
11735;SDS011;5924;51.398;7.088;2023-06-22T15:16:05;16.80;;;15.00;;
11735;SDS011;5924;51.398;7.088;2023-06-22T15:18:31;18.10;;;15.00;;
11735;SDS011;5924;51.398;7.088;2023-06-22T15:21:00;17.67;;;15.80;;
11735;SDS011;5924;51.398;7.088;2023-06-22T15:23:26;17.70;;;14.67;;
11735;SDS011;5924;51.398;7.088;2023-06-22T15:25:54;19.00;;;15.77;;
11735;SDS011;5924;51.398;7.088;2023-06-22T15:28:20;15.17;;;13.70;;
11735;SDS011;5924;51.398;7.088;2023-06-22T15:30:49;16.00;;;14.30;;
11735;SDS011;5924;51.398;7.088;2023-06-22T15:33:15;16.53;;;14.90;;
11735;SDS011;5924;51.398;7.088;2023-06-22T15:35:41;17.60;;;15.57;;
11735;SDS011;5924;51.398;7.088;2023-06-22T15:38:07;17.40;;;15.27;;
11735;SDS011;5924;51.398;7.088;2023-06-22T15:40:32;21.43;;;17.37;;
11735;SDS011;5924;51.398;7.088;2023-06-22T15:42:58;19.87;;;16.70;;
11735;SDS011;5924;51.398;7.088;2023-06-22T15:45:24;23.00;;;18.77;;
11735;SDS011;5924;51.398;7.088;2023-06-22T15:47:50;20.77;;;18.07;;
11735;SDS011;5924;51.398;7.088;2023-06-22T15:50:16;25.63;;;17.83;;
11735;SDS011;5924;51.398;7.088;2023-06-22T15:52:42;23.40;;;16.83;;
11735;SDS011;5924;51.398;7.088;2023-06-22T15:55:12;32.20;;;20.93;;
11735;SDS011;5924;51.398;7.088;2023-06-22T15:57:41;29.47;;;23.90;;
11735;SDS011;5924;51.398;7.088;2023-06-22T16:00:11;33.70;;;22.47;;
11735;SDS011;5924;51.398;7.088;2023-06-22T16:02:39;34.67;;;22.63;;
11735;SDS011;5924;51.398;7.088;2023-06-22T16:05:05;31.60;;;24.37;;
11735;SDS011;5924;51.398;7.088;2023-06-22T16:07:31;32.83;;;24.40;;